createdAt,value
2018-11-11T00:00:47.121Z,3.43
2018-11-11T00:03:16.132Z,3.30
2018-11-11T00:05:50.268Z,3.27
2018-11-11T00:08:24.332Z,3.10
2018-11-11T00:11:11.208Z,3.20
2018-11-11T00:13:40.244Z,2.80
2018-11-11T00:16:15.607Z,3.07
2018-11-11T00:21:44.598Z,2.87
2018-11-11T00:24:19.197Z,2.97
2018-11-11T00:26:54.840Z,2.67
2018-11-11T00:29:23.717Z,3.03
2018-11-11T00:31:55.838Z,2.97
2018-11-11T00:34:25.828Z,2.83
2018-11-11T00:36:55.081Z,2.90
2018-11-11T00:39:23.985Z,2.17
2018-11-11T00:41:52.938Z,2.70
2018-11-11T00:44:23.001Z,2.40
2018-11-11T00:46:51.922Z,2.30
2018-11-11T00:49:20.895Z,2.37
2018-11-11T00:52:00.842Z,2.33
2018-11-11T00:54:34.979Z,2.73
2018-11-11T00:57:14.338Z,2.20
2018-11-11T00:59:48.677Z,1.90
2018-11-11T01:02:17.685Z,1.90
2018-11-11T01:04:46.602Z,2.03
2018-11-11T01:10:15.719Z,1.80
2018-11-11T01:12:55.854Z,1.90
2018-11-11T01:15:34.688Z,1.60
2018-11-11T01:18:03.556Z,2.00
2018-11-11T01:20:32.523Z,1.80
2018-11-11T01:23:12.868Z,1.87
2018-11-11T01:25:41.795Z,1.90
2018-11-11T01:28:14.128Z,1.70
2018-11-11T01:30:43.013Z,2.00
2018-11-11T01:33:12.957Z,1.80
2018-11-11T01:35:55.132Z,1.70
2018-11-11T01:38:37.885Z,1.70
2018-11-11T01:41:12.310Z,2.10
2018-11-11T01:43:41.217Z,2.10
2018-11-11T01:46:10.139Z,1.60
2018-11-11T01:48:46.644Z,1.60
2018-11-11T01:51:22.258Z,1.70
2018-11-11T01:53:59.181Z,1.70
2018-11-11T01:56:29.286Z,1.93
2018-11-11T01:58:58.414Z,1.97
2018-11-11T02:01:29.431Z,1.80
2018-11-11T02:03:58.312Z,1.83
2018-11-11T02:06:27.185Z,2.10
2018-11-11T02:08:56.151Z,1.70
2018-11-11T02:11:25.394Z,1.70
2018-11-11T02:13:54.396Z,1.60
2018-11-11T02:16:23.539Z,1.90
2018-11-11T02:18:52.478Z,1.67
2018-11-11T02:21:21.428Z,2.10
2018-11-11T02:23:54.209Z,1.63
2018-11-11T02:26:36.804Z,1.90
2018-11-11T02:29:05.929Z,2.10
2018-11-11T02:31:39.382Z,2.00
2018-11-11T02:34:08.266Z,1.80
2018-11-11T02:36:37.474Z,1.63
2018-11-11T02:39:07.826Z,1.60
2018-11-11T02:41:36.743Z,1.77
2018-11-11T02:52:47.850Z,1.70
2018-11-11T02:55:37.120Z,1.90
2018-11-11T02:58:09.870Z,1.60
2018-11-11T03:00:38.824Z,1.40
2018-11-11T03:03:07.652Z,1.60
2018-11-11T03:05:36.575Z,1.70
2018-11-11T03:11:00.316Z,2.23
2018-11-11T03:13:29.206Z,2.00
2018-11-11T03:15:58.090Z,1.70
2018-11-11T03:18:29.008Z,1.60
2018-11-11T03:20:57.893Z,1.60
2018-11-11T03:23:26.745Z,1.60
2018-11-11T03:25:55.655Z,1.60
2018-11-11T03:28:24.557Z,1.70
2018-11-11T03:30:53.508Z,1.70
2018-11-11T03:33:22.441Z,1.63
2018-11-11T03:35:51.297Z,1.90
2018-11-11T03:38:36.099Z,1.77
2018-11-11T03:41:11.732Z,1.63
2018-11-11T03:43:40.667Z,1.80
2018-11-11T03:46:09.739Z,1.77
2018-11-11T03:48:39.701Z,1.70
2018-11-11T03:54:03.480Z,1.33
2018-11-11T03:56:32.416Z,1.67
2018-11-11T03:59:21.793Z,1.90
2018-11-11T04:01:50.654Z,1.70
2018-11-11T04:04:19.536Z,1.80
2018-11-11T04:06:48.550Z,1.60
2018-11-11T04:09:29.700Z,1.30
2018-11-11T04:11:58.572Z,1.57
2018-11-11T04:14:27.442Z,1.93
2018-11-11T04:16:56.351Z,2.00
2018-11-11T04:19:37.578Z,2.07
2018-11-11T04:27:56.442Z,1.40
2018-11-11T04:30:25.358Z,1.60
2018-11-11T04:32:54.265Z,1.93
2018-11-11T04:35:23.198Z,1.40
2018-11-11T04:37:56.570Z,1.50
2018-11-11T04:40:33.832Z,1.50
2018-11-11T04:43:13.692Z,1.67
2018-11-11T04:46:01.045Z,1.60
2018-11-11T04:48:29.958Z,1.70
2018-11-11T04:53:57.914Z,1.47
2018-11-11T04:59:32.238Z,1.63
2018-11-11T05:02:01.120Z,1.43
2018-11-11T05:04:35.434Z,1.60
2018-11-11T05:07:04.324Z,1.57
2018-11-11T05:09:33.297Z,1.80
2018-11-11T05:12:25.868Z,1.60
2018-11-11T05:15:12.705Z,1.37
2018-11-11T05:17:48.926Z,1.50
2018-11-11T05:20:17.833Z,1.60
2018-11-11T05:22:51.928Z,1.70
2018-11-11T05:25:33.296Z,1.53
2018-11-11T05:28:02.238Z,1.40
2018-11-11T05:30:31.132Z,1.30
2018-11-11T05:33:00.001Z,1.57
2018-11-11T05:38:36.397Z,1.33
2018-11-11T05:41:05.566Z,1.30
2018-11-11T05:43:38.260Z,1.40
2018-11-11T05:49:19.471Z,1.53
2018-11-11T05:51:48.395Z,1.63
2018-11-11T05:54:17.299Z,1.60
2018-11-11T05:56:46.185Z,1.20
2018-11-11T05:59:15.070Z,1.30
2018-11-11T06:04:54.294Z,1.30
2018-11-11T06:07:33.646Z,1.43
2018-11-11T06:10:07.420Z,1.43
2018-11-11T06:12:52.815Z,1.70
2018-11-11T06:15:26.657Z,1.40
2018-11-11T06:18:06.183Z,1.30
2018-11-11T06:20:35.091Z,1.53
2018-11-11T06:23:04.008Z,1.40
2018-11-11T06:25:32.918Z,1.50
2018-11-11T06:28:19.967Z,1.33
2018-11-11T06:30:52.678Z,1.07
2018-11-11T06:33:21.623Z,1.53
2018-11-11T06:35:50.571Z,2.03
2018-11-11T06:38:21.584Z,1.90
2018-11-11T06:40:53.882Z,1.40
2018-11-11T06:43:24.818Z,1.57
2018-11-11T06:46:11.191Z,1.40
2018-11-11T06:48:40.112Z,1.60
2018-11-11T06:51:27.596Z,1.67
2018-11-11T06:54:13.329Z,1.67
2018-11-11T06:56:50.308Z,1.50
2018-11-11T06:59:20.613Z,1.30
2018-11-11T07:01:56.096Z,1.53
2018-11-11T07:07:36.766Z,1.50
2018-11-11T07:15:52.891Z,1.57
2018-11-11T07:18:32.928Z,1.50
2018-11-11T07:24:07.654Z,1.77
2018-11-11T07:26:40.056Z,1.57
2018-11-11T07:29:09.914Z,1.50
2018-11-11T07:31:39.894Z,1.33
2018-11-11T07:34:33.208Z,1.53
2018-11-11T07:37:02.166Z,1.50
2018-11-11T07:42:27.294Z,1.50
2018-11-11T07:45:00.120Z,1.63
2018-11-11T07:47:36.708Z,1.80
2018-11-11T07:50:17.377Z,1.43
2018-11-11T07:52:46.544Z,1.53
2018-11-11T07:55:21.144Z,1.43
2018-11-11T07:58:03.164Z,1.80
2018-11-11T08:00:32.152Z,1.53
2018-11-11T08:03:07.430Z,1.37
2018-11-11T08:05:39.748Z,1.20
2018-11-11T08:08:13.538Z,1.50
2018-11-11T08:10:55.855Z,1.20
2018-11-11T08:13:30.435Z,1.30
2018-11-11T08:16:05.267Z,1.47
2018-11-11T08:18:40.024Z,1.00
2018-11-11T08:21:11.976Z,1.07
2018-11-11T08:23:59.500Z,0.97
2018-11-11T08:26:33.404Z,1.03
2018-11-11T08:29:04.122Z,1.10
2018-11-11T08:31:38.594Z,1.00
2018-11-11T08:34:17.846Z,1.03
2018-11-11T08:36:52.127Z,1.10
2018-11-11T08:39:21.161Z,1.47
2018-11-11T08:41:50.081Z,1.10
2018-11-11T08:44:29.102Z,1.10
2018-11-11T08:46:58.058Z,1.00
2018-11-11T08:49:29.156Z,1.00
2018-11-11T08:51:59.107Z,1.10
2018-11-11T08:57:22.362Z,0.90
2018-11-11T08:59:56.013Z,1.17
2018-11-11T09:02:36.222Z,1.00
2018-11-11T09:05:09.765Z,0.97
2018-11-11T09:07:44.923Z,1.00
2018-11-11T09:13:26.324Z,0.90
2018-11-11T09:15:55.290Z,1.00
2018-11-11T09:18:42.633Z,0.90
2018-11-11T09:21:14.954Z,0.77
2018-11-11T09:23:45.926Z,0.80
2018-11-11T09:26:16.924Z,0.73
2018-11-11T09:28:52.202Z,0.87
2018-11-11T09:31:35.838Z,0.70
2018-11-11T09:34:09.488Z,0.70
2018-11-11T09:36:42.562Z,0.73
2018-11-11T09:39:12.540Z,0.80
2018-11-11T09:44:34.918Z,0.90
2018-11-11T09:47:04.047Z,0.80
2018-11-11T09:49:33.037Z,0.90
2018-11-11T09:52:02.036Z,1.07
2018-11-11T09:54:31.024Z,1.10
2018-11-11T09:56:59.894Z,1.00
2018-11-11T09:59:28.814Z,0.90
2018-11-11T10:01:57.768Z,1.00
2018-11-11T10:05:30.490Z,1.07
2018-11-11T10:08:04.721Z,0.80
2018-11-11T10:11:39.759Z,1.00
2018-11-11T10:14:12.851Z,1.00
2018-11-11T10:17:02.107Z,0.60
2018-11-11T10:19:35.407Z,0.80
2018-11-11T10:22:15.285Z,0.87
2018-11-11T10:24:53.182Z,1.00
2018-11-11T10:27:27.396Z,0.90
2018-11-11T10:30:03.296Z,0.97
2018-11-11T10:32:48.866Z,0.77
2018-11-11T10:35:35.622Z,0.83
2018-11-11T10:38:12.598Z,1.07
2018-11-11T10:40:45.869Z,0.90
2018-11-11T10:43:36.872Z,0.97
2018-11-11T10:46:11.430Z,0.80
2018-11-11T10:48:53.420Z,0.90
2018-11-11T10:51:22.364Z,0.80
2018-11-11T10:53:58.363Z,1.00
2018-11-11T10:56:27.754Z,1.27
2018-11-11T10:58:57.784Z,1.10
2018-11-11T11:01:26.750Z,1.00
2018-11-11T11:03:55.659Z,1.30
2018-11-11T11:06:34.854Z,1.00
2018-11-11T11:09:10.661Z,1.17
2018-11-11T11:17:38.073Z,1.00
2018-11-11T11:20:07.476Z,0.90
2018-11-11T11:22:36.399Z,0.90
2018-11-11T11:25:26.047Z,1.13
2018-11-11T11:27:54.906Z,1.20
2018-11-11T11:30:33.913Z,0.90
2018-11-11T11:33:02.858Z,1.10
2018-11-11T11:35:31.764Z,1.10
2018-11-11T11:38:00.789Z,1.00
2018-11-11T11:40:29.654Z,0.90
2018-11-11T11:42:58.560Z,1.00
2018-11-11T11:45:27.551Z,1.00
2018-11-11T11:47:56.515Z,1.30
2018-11-11T11:50:25.447Z,1.10
2018-11-11T11:52:54.500Z,1.20
2018-11-11T11:55:23.406Z,1.13
2018-11-11T11:58:07.209Z,1.30
2018-11-11T12:00:36.022Z,1.37
2018-11-11T12:03:04.931Z,1.30
2018-11-11T12:05:50.111Z,1.23
2018-11-11T12:08:19.105Z,1.30
2018-11-11T12:10:59.991Z,1.20
2018-11-11T12:13:28.867Z,1.40
2018-11-11T12:15:57.984Z,1.00
2018-11-11T12:18:26.884Z,1.20
2018-11-11T12:20:55.734Z,1.10
2018-11-11T12:23:24.706Z,1.43
2018-11-11T12:25:53.525Z,1.23
2018-11-11T12:28:22.437Z,1.20
2018-11-11T12:30:51.399Z,1.33
2018-11-11T12:33:20.279Z,1.57
2018-11-11T12:35:49.177Z,1.33
2018-11-11T12:38:37.930Z,1.20
2018-11-11T12:41:06.950Z,1.17
2018-11-11T12:43:35.969Z,1.03
2018-11-11T12:46:04.861Z,1.23
2018-11-11T12:48:51.920Z,1.33
2018-11-11T12:51:20.768Z,1.43
2018-11-11T12:53:49.657Z,1.20
2018-11-11T12:56:18.585Z,1.53
2018-11-11T12:58:47.522Z,1.53
2018-11-11T13:01:16.506Z,1.10
2018-11-11T13:03:45.537Z,1.50
2018-11-11T13:06:17.371Z,1.40
2018-11-11T13:08:46.359Z,1.60
2018-11-11T13:11:21.053Z,1.47
2018-11-11T13:13:50.047Z,1.50
2018-11-11T13:16:18.992Z,1.63
2018-11-11T13:18:48.024Z,1.50
2018-11-11T13:21:16.935Z,1.43
2018-11-11T13:23:45.859Z,2.00
2018-11-11T13:26:14.881Z,2.03
2018-11-11T13:28:44.363Z,1.90
2018-11-11T13:31:13.410Z,1.87
2018-11-11T13:33:42.425Z,1.70
2018-11-11T13:36:11.327Z,2.07
2018-11-11T13:38:42.326Z,1.40
2018-11-11T13:41:12.270Z,1.70
2018-11-11T13:43:42.331Z,2.17
2018-11-11T13:46:25.264Z,1.70
2018-11-11T13:49:00.113Z,2.30
2018-11-11T13:51:41.893Z,1.83
2018-11-11T13:54:11.089Z,2.17
2018-11-11T13:59:39.373Z,1.90
2018-11-11T14:02:19.324Z,1.80
2018-11-11T14:04:55.167Z,2.30
2018-11-11T14:07:24.257Z,1.40
2018-11-11T14:09:54.263Z,1.27
2018-11-11T14:12:30.390Z,1.80
2018-11-11T14:15:01.343Z,1.50
2018-11-11T14:17:30.424Z,1.60
2018-11-11T14:20:00.674Z,1.50
2018-11-11T14:22:31.781Z,1.50
2018-11-11T14:25:01.798Z,1.40
2018-11-11T14:27:31.284Z,1.30
2018-11-11T14:30:01.271Z,1.33
2018-11-11T14:32:33.895Z,1.43
2018-11-11T14:35:02.881Z,1.20
2018-11-11T14:37:35.845Z,1.20
2018-11-11T14:40:18.754Z,0.80
2018-11-11T14:42:52.081Z,0.90
2018-11-11T14:45:22.592Z,0.97
2018-11-11T14:47:58.676Z,1.10
2018-11-11T14:50:31.756Z,1.17
2018-11-11T14:53:00.849Z,1.10
2018-11-11T14:55:35.573Z,0.93
2018-11-11T15:01:18.994Z,1.10
2018-11-11T15:03:54.386Z,0.90
2018-11-11T15:06:27.601Z,1.20
2018-11-11T15:09:17.206Z,1.37
2018-11-11T15:11:46.158Z,1.10
2018-11-11T15:14:19.672Z,1.30
2018-11-11T15:16:49.817Z,1.10
2018-11-11T15:19:26.106Z,1.03
2018-11-11T15:22:04.751Z,1.13
2018-11-11T15:24:34.273Z,1.33
2018-11-11T15:27:04.566Z,1.00
2018-11-11T15:29:33.485Z,1.07
2018-11-11T15:32:17.266Z,1.40
2018-11-11T15:35:05.147Z,1.10
2018-11-11T15:37:34.155Z,1.50
2018-11-11T15:40:10.288Z,1.30
2018-11-11T15:42:39.558Z,1.30
2018-11-11T15:45:14.126Z,1.53
2018-11-11T15:47:43.511Z,2.23
2018-11-11T15:50:20.681Z,1.60
2018-11-11T15:52:59.236Z,1.80
2018-11-11T15:55:29.528Z,1.60
2018-11-11T15:57:59.746Z,1.80
2018-11-11T16:00:33.163Z,1.87
2018-11-11T16:03:03.092Z,1.83
2018-11-11T16:05:32.079Z,2.20
2018-11-11T16:08:11.103Z,2.70
2018-11-11T16:10:58.304Z,2.33
2018-11-11T16:13:28.240Z,2.10
2018-11-11T16:16:03.365Z,2.00
2018-11-11T16:18:32.381Z,1.80
2018-11-11T16:21:17.620Z,2.20
2018-11-11T16:23:52.083Z,2.37
2018-11-11T16:26:30.878Z,2.07
2018-11-11T16:29:00.874Z,2.20
2018-11-11T16:31:36.419Z,2.20
2018-11-11T16:34:12.214Z,2.07
2018-11-11T16:36:46.913Z,2.00
2018-11-11T16:39:22.531Z,2.67
2018-11-11T16:41:51.439Z,2.17
2018-11-11T16:44:21.419Z,2.60
2018-11-11T16:46:55.673Z,2.30
2018-11-11T16:49:25.590Z,2.33
2018-11-11T16:52:02.177Z,2.00
2018-11-11T16:54:31.051Z,2.50
2018-11-11T16:57:05.906Z,2.47
2018-11-11T16:59:35.962Z,2.20
2018-11-11T17:02:05.108Z,2.23
2018-11-11T17:04:34.014Z,2.00
2018-11-11T17:07:02.910Z,1.90
2018-11-11T17:09:35.930Z,2.00
2018-11-11T17:12:17.708Z,2.33
2018-11-11T17:14:46.736Z,1.87
2018-11-11T17:17:19.650Z,2.50
2018-11-11T17:19:58.774Z,1.60
2018-11-11T17:22:31.267Z,2.30
2018-11-11T17:25:03.843Z,2.00
2018-11-11T17:27:37.828Z,2.10
2018-11-11T17:30:19.730Z,1.97
2018-11-11T17:32:52.926Z,1.57
2018-11-11T17:35:21.933Z,1.53
2018-11-11T17:37:56.851Z,1.33
2018-11-11T17:40:32.410Z,2.07
2018-11-11T17:43:07.188Z,1.70
2018-11-11T17:45:36.267Z,2.00
2018-11-11T17:48:05.586Z,1.70
2018-11-11T17:50:34.736Z,1.80
2018-11-11T17:53:08.744Z,2.47
2018-11-11T17:55:47.716Z,2.13
2018-11-11T17:58:30.987Z,1.70
2018-11-11T18:01:01.167Z,1.80
2018-11-11T18:03:40.734Z,1.80
2018-11-11T18:06:14.239Z,2.50
2018-11-11T18:08:45.248Z,2.37
2018-11-11T18:11:19.082Z,2.37
2018-11-11T18:14:11.266Z,2.60
2018-11-11T18:16:40.164Z,2.00
2018-11-11T18:19:12.950Z,2.30
2018-11-11T18:21:53.638Z,2.47
2018-11-11T18:24:24.596Z,2.37
2018-11-11T18:26:53.900Z,2.33
2018-11-11T18:29:22.777Z,3.80
2018-11-11T18:31:51.892Z,3.30
2018-11-11T18:34:26.475Z,2.30
2018-11-11T18:36:55.588Z,2.87
2018-11-11T18:39:28.598Z,2.57
2018-11-11T18:41:57.592Z,2.90
2018-11-11T18:44:31.500Z,2.53
2018-11-11T18:47:01.481Z,2.47
2018-11-11T18:49:37.099Z,2.47
2018-11-11T18:52:29.316Z,2.63
2018-11-11T18:55:04.112Z,2.50
2018-11-11T18:57:33.367Z,3.07
2018-11-11T19:00:03.308Z,2.70
2018-11-11T19:02:32.265Z,2.40
2018-11-11T19:05:02.387Z,2.13
2018-11-11T19:07:32.304Z,1.90
2018-11-11T19:10:07.617Z,1.93
2018-11-11T19:12:36.464Z,2.40
2018-11-11T19:15:07.619Z,2.80
2018-11-11T19:17:43.267Z,2.63
2018-11-11T19:20:14.566Z,2.83
2018-11-11T19:22:43.501Z,2.30
2018-11-11T19:25:25.164Z,2.30
2018-11-11T19:27:54.880Z,1.70
2018-11-11T19:30:25.555Z,2.30
2018-11-11T19:33:04.979Z,2.00
2018-11-11T19:35:33.930Z,2.30
2018-11-11T19:38:02.903Z,2.20
2018-11-11T19:40:36.202Z,2.23
2018-11-11T19:43:06.240Z,2.23
2018-11-11T19:45:36.199Z,1.80
2018-11-11T19:48:06.621Z,2.23
2018-11-11T19:50:36.682Z,1.97
2018-11-11T19:53:05.867Z,2.00
2018-11-11T19:55:35.919Z,1.70
2018-11-11T19:58:06.143Z,1.60
2018-11-11T20:00:35.167Z,2.70
2018-11-11T20:03:04.659Z,1.33
2018-11-11T20:05:34.732Z,1.77
2018-11-11T20:08:10.095Z,1.33
2018-11-11T20:10:49.160Z,1.40
2018-11-11T20:13:25.111Z,1.40
2018-11-11T20:16:01.796Z,1.40
2018-11-11T20:18:30.864Z,1.27
2018-11-11T20:21:03.049Z,1.17
2018-11-11T20:23:34.058Z,1.20
2018-11-11T20:26:06.160Z,1.30
2018-11-11T20:28:37.218Z,1.17
2018-11-11T20:31:06.253Z,1.10
2018-11-11T20:33:35.159Z,1.10
2018-11-11T20:36:10.356Z,1.10
2018-11-11T20:38:39.397Z,1.20
2018-11-11T20:41:12.931Z,1.50
2018-11-11T20:43:43.458Z,1.10
2018-11-11T20:46:16.316Z,1.10
2018-11-11T20:48:47.335Z,1.20
2018-11-11T20:51:26.252Z,1.30
2018-11-11T20:54:13.550Z,1.30
2018-11-11T20:56:48.001Z,1.30
2018-11-11T20:59:24.555Z,1.40
2018-11-11T21:01:59.983Z,1.50
2018-11-11T21:04:29.435Z,1.20
2018-11-11T21:07:04.253Z,1.10
2018-11-11T21:09:55.753Z,1.30
2018-11-11T21:12:25.795Z,1.10
2018-11-11T21:15:08.612Z,1.20
2018-11-11T21:17:38.559Z,1.70
2018-11-11T21:20:09.344Z,1.60
2018-11-11T21:22:38.503Z,1.43
2018-11-11T21:25:08.180Z,1.37
2018-11-11T21:27:55.357Z,1.40
2018-11-11T21:30:29.516Z,1.60
2018-11-11T21:33:03.885Z,1.53
2018-11-11T21:35:35.858Z,1.57
2018-11-11T21:38:21.180Z,1.60
2018-11-11T21:40:54.051Z,1.60
2018-11-11T21:43:27.059Z,1.80
2018-11-11T21:45:57.234Z,1.50
2018-11-11T21:48:26.201Z,1.77
2018-11-11T21:50:55.228Z,1.40
2018-11-11T21:53:32.098Z,1.57
2018-11-11T21:56:18.596Z,1.60
2018-11-11T21:58:53.784Z,2.73
2018-11-11T22:01:23.793Z,2.30
2018-11-11T22:03:52.817Z,2.10
2018-11-11T22:06:25.105Z,1.50
2018-11-11T22:08:57.954Z,1.70
2018-11-11T22:11:26.984Z,1.90
2018-11-11T22:14:01.555Z,1.83
2018-11-11T22:16:34.620Z,2.00
2018-11-11T22:19:16.457Z,1.90
2018-11-11T22:21:45.644Z,2.10
2018-11-11T22:24:18.658Z,1.90
2018-11-11T22:26:54.935Z,2.03
2018-11-11T22:29:28.036Z,1.63
2018-11-11T22:35:02.242Z,1.80
2018-11-11T22:37:32.148Z,1.90
2018-11-11T22:40:08.064Z,2.00
2018-11-11T22:42:48.007Z,1.97
2018-11-11T22:45:16.981Z,2.10
2018-11-11T22:47:46.068Z,1.90
2018-11-11T22:50:17.055Z,1.90
2018-11-11T22:55:51.132Z,2.00
2018-11-11T22:58:22.371Z,2.10
2018-11-11T23:01:03.425Z,2.10
2018-11-11T23:03:32.600Z,1.93
2018-11-11T23:06:02.583Z,2.00
2018-11-11T23:08:33.743Z,2.17
2018-11-11T23:11:13.100Z,2.10
2018-11-11T23:13:43.022Z,2.07
2018-11-11T23:16:22.690Z,2.40
2018-11-11T23:18:53.904Z,2.53
2018-11-11T23:21:22.932Z,2.10
2018-11-11T23:23:51.820Z,1.93
2018-11-11T23:26:21.752Z,2.13
2018-11-11T23:28:56.218Z,2.27
2018-11-11T23:31:43.868Z,2.03
2018-11-11T23:34:14.040Z,2.10
2018-11-11T23:39:41.312Z,1.70
2018-11-11T23:42:11.416Z,2.20
2018-11-11T23:44:40.569Z,1.80
2018-11-11T23:47:09.579Z,2.00
2018-11-11T23:49:38.480Z,2.10
2018-11-11T23:52:07.695Z,1.80
2018-11-11T23:54:36.928Z,2.17
2018-11-11T23:57:05.926Z,1.90
2018-11-11T23:59:37.057Z,2.13
